createdAt,value
2019-05-29T00:00:36.147Z,0.60
2019-05-29T00:03:19.770Z,1.17
2019-05-29T00:06:08.131Z,0.98
2019-05-29T00:08:56.162Z,0.80
2019-05-29T00:11:37.725Z,0.90
2019-05-29T00:14:27.138Z,1.00
2019-05-29T00:17:17.029Z,0.90
2019-05-29T00:23:10.554Z,0.90
2019-05-29T00:28:40.476Z,1.00
2019-05-29T00:31:13.975Z,0.50
2019-05-29T00:34:04.135Z,0.70
2019-05-29T00:39:59.827Z,1.10
2019-05-29T00:42:41.294Z,1.10
2019-05-29T00:45:27.898Z,1.00
2019-05-29T00:48:10.106Z,0.60
2019-05-29T00:50:52.939Z,0.80
2019-05-29T00:53:34.459Z,1.10
2019-05-29T00:56:18.849Z,0.90
2019-05-29T00:59:00.468Z,1.10
2019-05-29T01:01:44.146Z,1.00
2019-05-29T01:04:25.655Z,0.80
2019-05-29T01:06:55.532Z,0.80
2019-05-29T01:09:44.501Z,0.73
2019-05-29T01:15:06.136Z,0.97
2019-05-29T01:17:54.787Z,0.87
2019-05-29T01:20:37.063Z,0.80
2019-05-29T01:23:07.027Z,1.00
2019-05-29T01:25:58.979Z,1.00
2019-05-29T01:31:21.607Z,1.00
2019-05-29T01:40:20.966Z,1.20
2019-05-29T01:43:00.404Z,1.20
2019-05-29T01:48:27.761Z,1.30
2019-05-29T01:51:10.988Z,1.10
2019-05-29T01:53:53.228Z,0.97
2019-05-29T01:59:31.611Z,1.10
2019-05-29T02:02:15.820Z,1.20
2019-05-29T02:05:01.213Z,1.17
2019-05-29T02:07:31.692Z,1.40
2019-05-29T02:10:22.134Z,1.33
2019-05-29T02:15:53.370Z,1.50
2019-05-29T02:21:12.693Z,1.17
2019-05-29T02:24:01.755Z,1.50
2019-05-29T02:26:45.287Z,1.80
2019-05-29T02:29:34.706Z,1.70
2019-05-29T02:32:17.673Z,1.57
2019-05-29T02:35:01.971Z,1.63
2019-05-29T02:37:47.534Z,1.40
2019-05-29T02:43:13.484Z,1.70
2019-05-29T02:45:56.333Z,1.70
2019-05-29T02:48:41.239Z,2.00
2019-05-29T02:51:12.339Z,1.83
2019-05-29T02:54:17.016Z,2.10
2019-05-29T02:56:46.496Z,2.10
2019-05-29T02:59:28.157Z,2.00
2019-05-29T03:02:12.613Z,1.73
2019-05-29T03:04:53.699Z,1.90
2019-05-29T03:07:36.949Z,2.22
2019-05-29T03:10:18.818Z,2.37
2019-05-29T03:13:07.201Z,2.40
2019-05-29T03:16:08.417Z,2.73
2019-05-29T03:18:36.998Z,2.50
2019-05-29T03:21:18.801Z,2.60
2019-05-29T03:24:01.247Z,2.47
2019-05-29T03:26:42.894Z,2.70
2019-05-29T03:29:26.222Z,2.73
2019-05-29T03:32:13.625Z,2.63
2019-05-29T03:34:53.962Z,2.40
2019-05-29T03:37:35.561Z,2.53
2019-05-29T03:40:17.926Z,2.50
2019-05-29T03:42:59.805Z,2.67
2019-05-29T03:45:43.668Z,2.60
2019-05-29T03:48:26.063Z,2.60
2019-05-29T03:50:57.357Z,2.50
2019-05-29T03:53:46.873Z,3.20
2019-05-29T03:59:12.944Z,3.30
2019-05-29T04:01:56.198Z,2.90
2019-05-29T04:04:26.954Z,2.90
2019-05-29T04:10:29.476Z,2.97
2019-05-29T04:19:31.529Z,3.10
2019-05-29T04:22:17.505Z,2.83
2019-05-29T04:27:43.299Z,3.07
2019-05-29T04:30:28.080Z,3.20
2019-05-29T04:33:09.321Z,3.03
2019-05-29T04:35:53.015Z,3.13
2019-05-29T04:38:36.180Z,3.53
2019-05-29T04:41:06.512Z,3.70
2019-05-29T04:43:57.180Z,3.57
2019-05-29T04:46:40.737Z,3.60
2019-05-29T04:49:25.567Z,3.80
2019-05-29T04:52:10.432Z,4.63
2019-05-29T04:54:54.747Z,3.57
2019-05-29T04:57:26.129Z,3.93
2019-05-29T05:00:40.829Z,3.63
2019-05-29T05:06:31.555Z,2.80
2019-05-29T05:09:16.748Z,3.63
2019-05-29T05:11:58.765Z,3.47
2019-05-29T05:14:31.286Z,3.73
2019-05-29T05:17:25.784Z,3.47
2019-05-29T05:19:56.348Z,3.70
2019-05-29T05:22:26.184Z,4.27
2019-05-29T05:30:47.011Z,3.40
2019-05-29T05:33:17.366Z,4.27
2019-05-29T05:35:48.573Z,3.73
2019-05-29T05:38:41.190Z,4.93
2019-05-29T05:41:11.747Z,3.73
2019-05-29T05:44:00.369Z,4.20
2019-05-29T05:46:54.539Z,3.57
2019-05-29T05:49:37.326Z,3.30
2019-05-29T05:52:33.748Z,3.50
2019-05-29T05:55:27.141Z,3.37
2019-05-29T05:58:17.270Z,3.37
2019-05-29T06:01:04.778Z,2.87
2019-05-29T06:04:38.585Z,2.70
2019-05-29T06:09:46.603Z,2.77
2019-05-29T06:12:58.725Z,2.67
2019-05-29T06:15:29.378Z,2.77
2019-05-29T06:18:19.414Z,2.93
2019-05-29T06:20:51.011Z,2.97
2019-05-29T06:23:22.895Z,3.00
2019-05-29T06:25:53.899Z,3.10
2019-05-29T06:28:27.601Z,3.70
2019-05-29T06:31:00.756Z,2.67
2019-05-29T06:33:31.429Z,3.00
2019-05-29T06:36:05.214Z,3.40
2019-05-29T06:38:35.573Z,3.73
2019-05-29T06:41:06.199Z,3.00
2019-05-29T06:43:38.061Z,3.13
2019-05-29T06:46:31.141Z,3.13
2019-05-29T06:49:01.541Z,2.90
2019-05-29T06:51:31.592Z,2.97
2019-05-29T06:54:20.745Z,3.10
2019-05-29T06:56:50.510Z,3.27
2019-05-29T06:59:40.474Z,3.30
2019-05-29T07:02:10.840Z,3.30
2019-05-29T07:04:40.851Z,2.80
2019-05-29T07:07:10.878Z,3.00
2019-05-29T07:09:41.058Z,3.10
2019-05-29T07:12:12.633Z,2.77
2019-05-29T07:14:42.534Z,2.90
2019-05-29T07:17:12.245Z,2.90
2019-05-29T07:19:56.632Z,2.70
2019-05-29T07:22:14.409Z,3.33
2019-05-29T07:25:04.229Z,3.10
2019-05-29T07:27:34.810Z,3.23
2019-05-29T07:30:04.890Z,3.97
2019-05-29T07:32:35.202Z,3.50
2019-05-29T07:35:05.751Z,3.37
2019-05-29T07:37:37.706Z,3.87
2019-05-29T07:40:08.098Z,3.43
2019-05-29T07:42:39.939Z,3.90
2019-05-29T07:45:09.515Z,3.10
2019-05-29T07:47:40.457Z,3.03
2019-05-29T07:50:10.565Z,3.00
2019-05-29T07:52:40.849Z,3.40
2019-05-29T07:55:10.686Z,3.60
2019-05-29T07:57:41.121Z,3.50
2019-05-29T08:00:11.671Z,2.90
2019-05-29T08:02:43.208Z,3.35
2019-05-29T08:05:32.200Z,3.10
2019-05-29T08:08:21.064Z,3.45
2019-05-29T08:10:50.916Z,2.97
2019-05-29T08:13:20.767Z,3.10
2019-05-29T08:16:01.900Z,3.40
2019-05-29T08:18:23.250Z,3.27
2019-05-29T08:20:53.203Z,3.40
2019-05-29T08:23:23.567Z,4.03
2019-05-29T08:25:54.298Z,3.40
2019-05-29T08:28:24.698Z,3.77
2019-05-29T08:31:13.911Z,3.27
2019-05-29T08:33:44.791Z,3.77
2019-05-29T08:36:15.837Z,3.17
2019-05-29T08:38:47.397Z,3.57
2019-05-29T08:41:17.866Z,3.93
2019-05-29T08:43:48.439Z,3.43
2019-05-29T08:46:18.367Z,3.83
2019-05-29T08:49:07.230Z,3.47
2019-05-29T08:51:37.159Z,3.40
2019-05-29T08:54:22.897Z,3.57
2019-05-29T08:56:39.188Z,3.00
2019-05-29T08:59:08.747Z,3.58
2019-05-29T09:01:39.863Z,3.60
2019-05-29T09:04:09.359Z,3.97
2019-05-29T09:06:39.127Z,4.33
2019-05-29T09:09:08.865Z,4.50
2019-05-29T09:11:38.833Z,4.60
2019-05-29T09:14:08.797Z,3.63
2019-05-29T09:16:38.679Z,3.73
2019-05-29T09:19:08.179Z,4.03
2019-05-29T09:21:57.016Z,3.70
2019-05-29T09:24:27.352Z,3.30
2019-05-29T09:27:32.180Z,3.93
2019-05-29T09:29:52.798Z,3.97
2019-05-29T09:32:47.926Z,3.03
2019-05-29T09:34:54.156Z,3.80
2019-05-29T09:37:24.582Z,3.43
2019-05-29T09:39:56.219Z,3.80
2019-05-29T09:42:28.781Z,3.80
2019-05-29T09:45:03.233Z,3.93
2019-05-29T09:47:33.212Z,3.50
2019-05-29T09:50:03.657Z,2.40
2019-05-29T09:52:33.994Z,3.97
2019-05-29T09:55:04.838Z,3.40
2019-05-29T09:57:56.938Z,2.83
2019-05-29T10:00:41.454Z,5.20
2019-05-29T10:03:28.573Z,2.67
2019-05-29T10:06:09.221Z,2.60
2019-05-29T10:08:36.729Z,2.92
2019-05-29T10:11:10.663Z,3.30
2019-05-29T10:13:58.664Z,3.07
2019-05-29T10:16:29.100Z,3.55
2019-05-29T10:19:00.417Z,2.90
2019-05-29T10:21:40.281Z,2.90
2019-05-29T10:27:21.787Z,3.40
2019-05-29T10:29:53.175Z,3.10
2019-05-29T10:32:23.904Z,3.37
2019-05-29T10:35:05.527Z,2.62
2019-05-29T10:37:35.423Z,2.70
2019-05-29T10:40:09.263Z,2.37
2019-05-29T10:42:41.414Z,3.40
2019-05-29T10:45:13.443Z,2.87
2019-05-29T10:47:43.573Z,2.87
2019-05-29T10:50:13.455Z,2.62
2019-05-29T10:53:04.160Z,2.65
2019-05-29T10:55:34.372Z,2.83
2019-05-29T10:58:07.467Z,2.58
2019-05-29T11:00:39.346Z,2.80
2019-05-29T11:03:09.822Z,3.52
2019-05-29T11:05:40.045Z,2.98
2019-05-29T11:08:10.072Z,2.58
2019-05-29T11:10:43.909Z,2.80
2019-05-29T11:13:13.999Z,2.75
2019-05-29T11:15:44.611Z,2.50
2019-05-29T11:18:15.610Z,2.40
2019-05-29T11:20:47.232Z,2.20
2019-05-29T11:23:36.254Z,2.10
2019-05-29T11:26:06.478Z,1.85
2019-05-29T11:28:37.668Z,2.90
2019-05-29T11:31:08.516Z,2.83
2019-05-29T11:33:38.626Z,2.77
2019-05-29T11:36:13.194Z,2.30
2019-05-29T11:38:41.505Z,2.10
2019-05-29T11:41:25.867Z,1.80
2019-05-29T11:43:44.589Z,1.98
2019-05-29T11:46:14.664Z,1.90
2019-05-29T11:48:44.470Z,1.70
2019-05-29T11:51:14.807Z,1.70
2019-05-29T11:53:45.283Z,1.55
2019-05-29T11:56:17.652Z,1.30
2019-05-29T12:02:03.436Z,1.50
2019-05-29T12:04:33.827Z,1.20
2019-05-29T12:07:04.392Z,1.52
2019-05-29T12:09:53.444Z,1.45
2019-05-29T12:12:23.412Z,1.52
2019-05-29T12:15:04.922Z,2.30
2019-05-29T12:17:27.350Z,2.30
2019-05-29T12:24:07.514Z,1.92
2019-05-29T12:26:37.364Z,2.20
2019-05-29T12:29:11.682Z,2.37
2019-05-29T12:31:40.065Z,1.82
2019-05-29T12:34:19.199Z,2.05
2019-05-29T12:36:43.810Z,1.80
2019-05-29T12:39:13.988Z,1.75
2019-05-29T12:41:44.760Z,2.37
2019-05-29T12:44:33.719Z,2.08
2019-05-29T12:47:04.288Z,1.95
2019-05-29T12:49:34.226Z,2.20
2019-05-29T12:52:24.895Z,1.80
2019-05-29T12:54:55.856Z,1.60
2019-05-29T12:57:25.778Z,1.50
2019-05-29T12:59:55.918Z,1.60
2019-05-29T13:02:26.304Z,1.45
2019-05-29T13:05:23.622Z,1.70
2019-05-29T13:07:54.710Z,2.30
2019-05-29T13:10:43.934Z,1.80
2019-05-29T13:13:15.646Z,1.90
2019-05-29T13:16:05.195Z,1.90
2019-05-29T13:28:12.170Z,2.30
2019-05-29T13:30:41.964Z,2.40
2019-05-29T13:33:11.840Z,2.13
2019-05-29T13:35:41.571Z,2.60
2019-05-29T13:38:11.698Z,2.30
2019-05-29T13:40:42.030Z,2.20
2019-05-29T13:43:24.870Z,2.40
2019-05-29T13:45:54.968Z,2.35
2019-05-29T13:48:24.920Z,2.27
2019-05-29T13:50:55.105Z,2.20
2019-05-29T13:53:25.400Z,2.20
2019-05-29T13:55:57.693Z,2.17
2019-05-29T13:58:43.081Z,2.70
2019-05-29T14:01:00.773Z,2.43
2019-05-29T14:03:44.104Z,2.40
2019-05-29T14:09:10.059Z,2.52
2019-05-29T14:11:51.274Z,5.85
2019-05-29T14:14:21.348Z,2.30
2019-05-29T14:16:51.185Z,1.40
2019-05-29T14:19:26.161Z,1.35
2019-05-29T14:21:56.632Z,1.60
2019-05-29T14:24:29.877Z,1.55
2019-05-29T14:27:18.577Z,1.40
2019-05-29T14:29:48.459Z,1.87
2019-05-29T14:32:18.643Z,1.77
2019-05-29T14:34:48.802Z,2.00
2019-05-29T14:37:19.628Z,1.73
2019-05-29T14:39:49.561Z,2.00
2019-05-29T14:42:26.317Z,2.17
2019-05-29T14:45:25.164Z,2.05
2019-05-29T14:48:02.196Z,2.27
2019-05-29T14:53:46.528Z,2.10
2019-05-29T14:56:39.458Z,1.90
2019-05-29T14:59:22.797Z,1.70
2019-05-29T15:02:00.946Z,1.43
2019-05-29T15:07:51.412Z,1.93
2019-05-29T15:10:27.515Z,1.83
2019-05-29T15:13:04.329Z,1.80
2019-05-29T15:16:16.351Z,1.70
2019-05-29T15:18:59.367Z,1.50
2019-05-29T15:21:48.959Z,1.60
2019-05-29T15:24:22.954Z,1.80
2019-05-29T15:27:13.845Z,1.90
2019-05-29T15:29:47.688Z,1.70
2019-05-29T15:32:18.758Z,1.67
2019-05-29T15:34:49.277Z,1.77
2019-05-29T15:37:38.344Z,1.40
2019-05-29T15:40:27.628Z,1.67
2019-05-29T15:47:31.291Z,1.70
2019-05-29T15:50:13.871Z,2.20
2019-05-29T15:52:45.212Z,2.20
2019-05-29T15:55:33.369Z,2.10
2019-05-29T15:58:07.323Z,2.50
2019-05-29T16:00:38.521Z,2.30
2019-05-29T16:03:09.804Z,2.13
2019-05-29T16:06:18.579Z,1.83
2019-05-29T16:08:48.584Z,2.10
2019-05-29T16:11:25.307Z,2.22
2019-05-29T16:13:55.200Z,2.35
2019-05-29T16:16:26.519Z,1.77
2019-05-29T16:19:16.270Z,1.67
2019-05-29T16:22:26.089Z,1.70
2019-05-29T16:25:16.962Z,2.03
2019-05-29T16:27:49.005Z,2.00
2019-05-29T16:30:20.046Z,2.07
2019-05-29T16:33:10.794Z,2.30
2019-05-29T16:35:41.164Z,2.47
2019-05-29T16:38:32.152Z,2.40
2019-05-29T16:41:04.430Z,2.30
2019-05-29T16:43:35.521Z,3.00
2019-05-29T16:46:05.820Z,2.90
2019-05-29T16:48:35.516Z,2.93
2019-05-29T16:51:05.895Z,2.70
2019-05-29T16:53:38.075Z,3.10
2019-05-29T16:56:08.715Z,2.97
2019-05-29T16:58:38.793Z,3.60
2019-05-29T17:01:09.187Z,3.10
2019-05-29T17:03:40.267Z,3.00
2019-05-29T17:06:14.296Z,3.00
2019-05-29T17:08:44.750Z,2.77
2019-05-29T17:11:33.894Z,3.00
2019-05-29T17:14:04.129Z,2.97
2019-05-29T17:16:34.587Z,2.83
2019-05-29T17:19:04.995Z,3.00
2019-05-29T17:22:18.946Z,3.00
2019-05-29T17:32:01.714Z,3.10
2019-05-29T17:34:32.618Z,2.97
2019-05-29T17:37:23.026Z,2.90
2019-05-29T17:43:56.110Z,3.23
2019-05-29T17:46:31.299Z,3.40
2019-05-29T17:49:30.380Z,3.20
2019-05-29T17:52:12.306Z,2.40
2019-05-29T17:54:44.969Z,2.80
2019-05-29T17:57:34.825Z,2.80
2019-05-29T18:03:22.169Z,2.77
2019-05-29T18:06:04.580Z,2.50
2019-05-29T18:08:34.470Z,2.53
2019-05-29T18:11:04.526Z,3.33
2019-05-29T18:13:34.468Z,3.63
2019-05-29T18:16:07.347Z,3.87
2019-05-29T18:18:37.350Z,3.43
2019-05-29T18:21:27.565Z,3.20
2019-05-29T18:24:17.639Z,2.40
2019-05-29T18:27:00.392Z,3.13
2019-05-29T18:29:30.370Z,3.30
2019-05-29T18:32:00.500Z,3.40
2019-05-29T18:40:47.771Z,3.33
2019-05-29T18:43:18.458Z,3.83
2019-05-29T18:46:07.938Z,4.53
2019-05-29T18:48:59.233Z,3.80
2019-05-29T18:55:15.722Z,3.20
2019-05-29T18:58:01.659Z,3.00
2019-05-29T19:03:27.536Z,3.07
2019-05-29T19:10:48.625Z,3.50
2019-05-29T19:13:38.059Z,4.07
2019-05-29T19:16:21.747Z,3.80
2019-05-29T19:18:52.532Z,3.90
2019-05-29T19:25:24.577Z,4.13
2019-05-29T19:28:07.652Z,4.33
2019-05-29T19:30:50.685Z,4.40
2019-05-29T19:33:33.546Z,4.07
2019-05-29T19:36:23.656Z,4.63
2019-05-29T19:39:06.259Z,3.97
2019-05-29T19:45:04.414Z,4.40
2019-05-29T19:47:34.993Z,4.10
2019-05-29T19:50:26.648Z,4.53
2019-05-29T19:56:05.459Z,5.47
2019-05-29T19:58:37.361Z,5.17
2019-05-29T20:01:08.444Z,5.33
2019-05-29T20:03:40.816Z,5.50
2019-05-29T20:06:12.232Z,4.77
2019-05-29T20:08:43.499Z,4.70
2019-05-29T20:11:37.780Z,4.63
2019-05-29T20:17:19.014Z,4.73
2019-05-29T20:22:45.745Z,4.60
2019-05-29T20:28:15.245Z,4.47
2019-05-29T20:30:49.321Z,3.70
2019-05-29T20:40:17.738Z,4.85
2019-05-29T20:46:04.990Z,3.80
2019-05-29T20:51:36.514Z,3.37
2019-05-29T20:57:09.762Z,3.85
2019-05-29T21:02:46.264Z,3.67
2019-05-29T21:05:30.841Z,3.73
2019-05-29T21:08:14.673Z,4.17
2019-05-29T21:13:35.872Z,3.37
2019-05-29T21:19:03.309Z,4.10
2019-05-29T21:21:36.235Z,3.60
2019-05-29T21:24:07.742Z,4.67
2019-05-29T21:26:57.353Z,4.40
2019-05-29T21:29:48.575Z,3.90
2019-05-29T21:35:03.460Z,4.07
2019-05-29T21:37:52.909Z,4.00
2019-05-29T21:40:34.563Z,4.43
2019-05-29T21:46:00.398Z,4.37
2019-05-29T21:51:22.035Z,3.87
2019-05-29T21:53:59.565Z,4.97
2019-05-29T21:56:49.652Z,4.77
2019-05-29T21:59:39.595Z,4.87
2019-05-29T22:02:22.188Z,4.90
2019-05-29T22:07:49.038Z,4.50
2019-05-29T22:13:21.405Z,6.37
2019-05-29T22:18:47.854Z,4.80
2019-05-29T22:24:14.002Z,5.57
2019-05-29T22:29:44.803Z,5.80
2019-05-29T22:35:12.078Z,5.53
2019-05-29T22:37:57.568Z,7.30
2019-05-29T22:40:42.976Z,5.73
2019-05-29T22:46:15.413Z,4.70
2019-05-29T22:48:47.683Z,4.47
2019-05-29T22:51:38.015Z,3.90
2019-05-29T22:54:08.493Z,4.40
2019-05-29T22:57:00.578Z,4.33
2019-05-29T22:59:51.844Z,3.90
2019-05-29T23:02:35.666Z,4.20
2019-05-29T23:08:04.307Z,4.37
2019-05-29T23:13:26.211Z,4.07
2019-05-29T23:18:54.323Z,4.20
2019-05-29T23:24:23.419Z,4.60
2019-05-29T23:29:49.661Z,6.53
2019-05-29T23:35:19.148Z,5.47
2019-05-29T23:40:45.407Z,4.80
2019-05-29T23:46:02.433Z,5.53
2019-05-29T23:48:53.377Z,5.17
2019-05-29T23:51:36.053Z,5.37
2019-05-29T23:54:06.612Z,4.50
2019-05-29T23:56:59.973Z,5.07
